createdAt,value
2019-04-07T00:01:45.277Z,58.63
2019-04-07T00:03:50.900Z,62.43
2019-04-07T00:05:56.408Z,64.77
2019-04-07T00:08:02.015Z,66.90
2019-04-07T00:10:09.864Z,86.53
2019-04-07T00:12:16.502Z,66.37
2019-04-07T00:14:22.028Z,91.67
2019-04-07T00:16:27.757Z,76.87
2019-04-07T00:18:33.279Z,79.17
2019-04-07T00:20:38.807Z,76.57
2019-04-07T00:22:44.340Z,69.05
2019-04-07T00:24:49.868Z,70.72
2019-04-07T00:26:55.460Z,71.70
2019-04-07T00:29:01.555Z,73.30
2019-04-07T00:31:07.348Z,67.95
2019-04-07T00:33:13.319Z,74.00
2019-04-07T00:35:26.479Z,75.08
2019-04-07T00:37:26.258Z,83.45
2019-04-07T00:39:32.292Z,112.00
2019-04-07T00:41:38.670Z,105.70
2019-04-07T00:43:45.181Z,103.00
2019-04-07T00:45:50.909Z,75.60
2019-04-07T00:47:56.804Z,84.20
2019-04-07T00:50:02.912Z,89.30
2019-04-07T00:52:10.275Z,98.85
2019-04-07T00:54:35.843Z,117.77
2019-04-07T00:56:41.445Z,100.67
2019-04-07T00:58:47.361Z,88.10
2019-04-07T01:00:53.032Z,87.65
2019-04-07T01:02:59.436Z,85.65
2019-04-07T01:05:07.307Z,91.30
2019-04-07T01:07:12.967Z,91.65
2019-04-07T01:09:18.760Z,104.12
2019-04-07T01:11:24.367Z,91.00
2019-04-07T01:13:29.919Z,86.35
2019-04-07T01:15:35.403Z,87.30
2019-04-07T01:17:40.931Z,90.87
2019-04-07T01:19:46.447Z,79.75
2019-04-07T01:21:51.973Z,75.70
2019-04-07T01:23:57.870Z,85.62
2019-04-07T01:26:03.613Z,77.20
2019-04-07T01:28:09.074Z,74.72
2019-04-07T01:30:15.054Z,79.45
2019-04-07T01:32:20.564Z,81.97
2019-04-07T01:34:26.232Z,86.85
2019-04-07T01:36:31.752Z,94.80
2019-04-07T01:38:37.852Z,94.32
2019-04-07T01:40:45.436Z,93.87
2019-04-07T01:43:02.743Z,90.32
2019-04-07T01:45:12.819Z,100.53
2019-04-07T01:47:28.925Z,88.27
2019-04-07T01:49:51.184Z,87.95
2019-04-07T01:51:58.344Z,90.83
2019-04-07T01:54:05.572Z,79.92
2019-04-07T01:56:12.921Z,79.27
2019-04-07T01:58:23.080Z,82.95
2019-04-07T02:00:30.248Z,82.67
2019-04-07T02:02:53.681Z,98.90
2019-04-07T02:05:05.546Z,82.90
2019-04-07T02:07:12.958Z,85.03
2019-04-07T02:09:32.465Z,99.65
2019-04-07T02:11:39.790Z,107.78
2019-04-07T02:14:03.697Z,102.95
2019-04-07T02:16:11.441Z,105.50
2019-04-07T02:18:18.778Z,102.07
2019-04-07T02:20:46.812Z,108.83
2019-04-07T02:25:19.885Z,93.95
2019-04-07T02:27:27.212Z,91.02
2019-04-07T02:29:37.378Z,88.60
2019-04-07T02:31:56.805Z,95.62
2019-04-07T02:34:07.124Z,85.92
2019-04-07T02:36:23.926Z,84.45
2019-04-07T02:38:34.636Z,83.92
2019-04-07T02:40:45.701Z,81.05
2019-04-07T02:45:28.723Z,71.50
2019-04-07T02:47:35.876Z,60.40
2019-04-07T02:49:47.605Z,66.40
2019-04-07T02:52:00.741Z,67.37
2019-04-07T02:54:10.737Z,63.42
2019-04-07T02:56:29.445Z,64.12
2019-04-07T02:58:49.777Z,65.30
2019-04-07T03:00:57.682Z,60.03
2019-04-07T03:03:21.547Z,55.98
2019-04-07T03:05:40.609Z,54.27
2019-04-07T03:07:56.437Z,52.25
2019-04-07T03:10:04.406Z,53.10
2019-04-07T03:12:15.545Z,50.50
2019-04-07T03:14:26.260Z,54.85
2019-04-07T03:16:33.605Z,52.25
2019-04-07T03:18:44.394Z,42.98
2019-04-07T03:21:08.238Z,49.63
2019-04-07T03:25:42.140Z,48.58
2019-04-07T03:27:52.783Z,52.50
2019-04-07T03:30:20.047Z,49.00
2019-04-07T03:32:33.933Z,54.40
2019-04-07T03:34:44.910Z,54.70
2019-04-07T03:37:19.117Z,52.17
2019-04-07T03:39:20.691Z,51.63
2019-04-07T03:41:29.029Z,53.87
2019-04-07T03:43:36.326Z,51.02
2019-04-07T03:45:49.855Z,48.15
2019-04-07T03:48:00.507Z,48.60
2019-04-07T03:50:18.554Z,51.05
2019-04-07T03:52:26.832Z,52.33
2019-04-07T03:54:52.698Z,48.25
2019-04-07T03:57:16.561Z,48.17
2019-04-07T03:59:33.780Z,49.08
2019-04-07T04:01:53.934Z,49.08
2019-04-07T04:04:02.182Z,48.73
2019-04-07T04:06:25.963Z,49.10
2019-04-07T04:08:48.993Z,49.03
2019-04-07T04:10:56.720Z,46.42
2019-04-07T04:13:05.052Z,50.00
2019-04-07T04:15:12.671Z,53.30
2019-04-07T04:17:18.383Z,51.55
2019-04-07T04:19:24.704Z,53.45
2019-04-07T04:21:30.899Z,53.45
2019-04-07T04:23:36.554Z,51.55
2019-04-07T04:25:42.907Z,55.05
2019-04-07T04:27:48.735Z,61.92
2019-04-07T04:29:55.212Z,60.05
2019-04-07T04:32:01.547Z,58.15
2019-04-07T04:34:07.207Z,54.55
2019-04-07T04:36:13.538Z,52.67
2019-04-07T04:38:20.073Z,55.92
2019-04-07T04:40:25.677Z,58.92
2019-04-07T04:42:31.285Z,60.98
2019-04-07T04:44:36.775Z,58.17
2019-04-07T04:46:42.673Z,57.27
2019-04-07T04:48:48.979Z,55.35
2019-04-07T04:50:55.971Z,64.22
2019-04-07T04:53:02.057Z,73.87
2019-04-07T04:55:07.724Z,102.58
2019-04-07T04:57:13.256Z,88.45
2019-04-07T04:59:18.769Z,80.57
2019-04-07T05:01:24.324Z,86.63
2019-04-07T05:03:30.462Z,82.25
2019-04-07T05:05:36.754Z,79.03
2019-04-07T05:07:54.118Z,72.75
2019-04-07T05:09:52.844Z,59.23
2019-04-07T05:11:56.592Z,57.80
2019-04-07T05:14:02.155Z,65.50
2019-04-07T05:16:08.280Z,67.30
2019-04-07T05:18:14.321Z,62.38
2019-04-07T05:20:20.326Z,61.37
2019-04-07T05:22:26.808Z,52.40
2019-04-07T05:24:32.348Z,51.98
2019-04-07T05:26:50.112Z,49.75
2019-04-07T05:28:55.653Z,47.23
2019-04-07T05:31:01.164Z,57.13
2019-04-07T05:33:06.681Z,54.53
2019-04-07T05:35:12.279Z,53.68
2019-04-07T05:37:17.826Z,58.28
2019-04-07T05:39:24.074Z,50.60
2019-04-07T05:41:31.208Z,51.73
2019-04-07T05:43:36.972Z,49.50
2019-04-07T05:45:43.356Z,54.38
2019-04-07T05:47:50.786Z,53.75
2019-04-07T05:49:58.731Z,53.15
2019-04-07T05:52:05.690Z,49.33
2019-04-07T05:54:12.300Z,50.03
2019-04-07T05:56:18.555Z,45.92
2019-04-07T05:58:24.301Z,51.37
2019-04-07T06:00:29.857Z,48.38
2019-04-07T06:02:35.427Z,44.90
2019-04-07T06:04:41.545Z,51.28
2019-04-07T06:06:51.143Z,49.33
2019-04-07T06:08:55.048Z,51.18
2019-04-07T06:11:02.320Z,53.30
2019-04-07T06:13:11.276Z,46.23
2019-04-07T06:15:21.280Z,48.05
2019-04-07T06:17:25.920Z,47.88
2019-04-07T06:19:30.380Z,48.48
2019-04-07T06:21:36.641Z,46.53
2019-04-07T06:23:42.256Z,49.23
2019-04-07T06:25:47.761Z,47.62
2019-04-07T06:27:53.350Z,47.13
2019-04-07T06:30:00.051Z,45.10
2019-04-07T06:32:09.771Z,43.95
2019-04-07T06:34:13.699Z,42.08
2019-04-07T06:36:20.273Z,43.48
2019-04-07T06:38:33.670Z,43.98
2019-04-07T06:40:33.766Z,45.65
2019-04-07T06:42:40.473Z,41.83
2019-04-07T06:44:46.228Z,41.90
2019-04-07T06:47:11.853Z,38.92
2019-04-07T06:49:37.072Z,41.92
2019-04-07T06:52:02.042Z,39.67
2019-04-07T06:54:07.847Z,38.63
2019-04-07T06:56:20.870Z,36.17
2019-04-07T06:58:45.019Z,36.85
2019-04-07T07:01:11.064Z,35.48
2019-04-07T07:03:19.081Z,33.20
2019-04-07T07:05:38.792Z,39.27
2019-04-07T07:08:02.442Z,30.05
2019-04-07T07:10:11.368Z,30.77
2019-04-07T07:12:32.282Z,32.20
2019-04-07T07:14:50.709Z,32.58
2019-04-07T07:17:16.998Z,33.08
2019-04-07T07:19:39.236Z,31.33
2019-04-07T07:22:06.476Z,32.05
2019-04-07T07:24:10.433Z,31.52
2019-04-07T07:26:16.038Z,33.28
2019-04-07T07:28:21.532Z,33.90
2019-04-07T07:30:27.200Z,33.98
2019-04-07T07:32:35.554Z,33.40
2019-04-07T07:34:42.121Z,32.55
2019-04-07T07:36:49.833Z,30.17
2019-04-07T07:38:59.064Z,29.92
2019-04-07T07:41:03.336Z,30.05
2019-04-07T07:43:08.661Z,29.02
2019-04-07T07:45:14.216Z,30.02
2019-04-07T07:47:20.839Z,28.47
2019-04-07T07:49:28.135Z,29.37
2019-04-07T07:51:34.947Z,23.07
2019-04-07T07:53:41.554Z,22.90
2019-04-07T07:55:47.660Z,22.67
2019-04-07T07:57:56.768Z,21.17
2019-04-07T08:00:00.442Z,21.40
2019-04-07T08:02:07.625Z,19.52
2019-04-07T08:04:13.949Z,20.08
2019-04-07T08:06:19.499Z,17.87
2019-04-07T08:08:25.420Z,16.20
2019-04-07T08:10:30.953Z,17.95
2019-04-07T08:12:36.474Z,20.97
2019-04-07T08:14:42.568Z,16.73
2019-04-07T08:16:48.973Z,18.60
2019-04-07T08:18:55.668Z,13.78
2019-04-07T08:21:02.190Z,16.37
2019-04-07T08:23:07.894Z,14.05
2019-04-07T08:25:14.139Z,15.83
2019-04-07T08:27:20.508Z,16.55
2019-04-07T08:29:26.910Z,13.28
2019-04-07T08:31:32.703Z,14.05
2019-04-07T08:33:38.582Z,14.98
2019-04-07T08:35:44.080Z,15.72
2019-04-07T08:37:50.061Z,12.33
2019-04-07T08:39:57.005Z,11.35
2019-04-07T08:42:06.602Z,12.28
2019-04-07T08:44:10.493Z,11.35
2019-04-07T08:46:16.392Z,11.28
2019-04-07T08:48:21.931Z,10.58
2019-04-07T08:50:28.628Z,10.45
2019-04-07T08:52:34.388Z,10.40
2019-04-07T08:54:39.912Z,11.63
2019-04-07T08:56:45.746Z,10.70
2019-04-07T08:58:52.127Z,11.73
2019-04-07T09:00:58.520Z,10.30
2019-04-07T09:03:10.574Z,11.53
2019-04-07T09:05:11.696Z,11.38
2019-04-07T09:07:17.543Z,11.30
2019-04-07T09:09:32.623Z,10.82
2019-04-07T09:11:32.112Z,11.57
2019-04-07T09:13:38.479Z,11.88
2019-04-07T09:15:55.536Z,12.03
2019-04-07T09:18:03.319Z,12.47
2019-04-07T09:20:13.542Z,11.53
2019-04-07T09:22:31.607Z,13.15
2019-04-07T09:24:55.126Z,12.63
2019-04-07T09:27:18.229Z,12.00
2019-04-07T09:29:39.797Z,12.85
2019-04-07T09:31:53.018Z,13.03
2019-04-07T09:34:00.148Z,13.98
2019-04-07T09:36:16.935Z,13.78
2019-04-07T09:38:29.785Z,11.03
2019-04-07T09:40:48.230Z,11.95
2019-04-07T09:43:01.262Z,11.83
2019-04-07T09:45:26.464Z,12.25
2019-04-07T09:47:47.757Z,12.53
2019-04-07T09:49:58.316Z,13.50
2019-04-07T09:52:11.773Z,13.38
2019-04-07T09:54:29.628Z,14.28
2019-04-07T09:59:22.847Z,14.60
2019-04-07T10:03:42.617Z,13.90
2019-04-07T10:05:55.700Z,17.70
2019-04-07T10:08:05.615Z,18.05
2019-04-07T10:12:52.831Z,20.88
2019-04-07T10:15:16.643Z,21.27
2019-04-07T10:17:26.221Z,16.10
2019-04-07T10:19:49.998Z,17.57
2019-04-07T10:21:57.188Z,14.77
2019-04-07T10:24:05.195Z,14.28
2019-04-07T10:26:15.832Z,15.32
2019-04-07T10:28:40.083Z,17.20
2019-04-07T10:30:56.597Z,17.50
2019-04-07T10:33:06.728Z,16.05
2019-04-07T10:35:16.864Z,17.32
2019-04-07T10:37:30.250Z,18.55
2019-04-07T10:39:43.448Z,18.60
2019-04-07T10:42:05.542Z,16.73
2019-04-07T10:44:16.120Z,17.12
2019-04-07T10:46:39.825Z,16.42
2019-04-07T10:49:04.301Z,16.45
2019-04-07T10:51:12.165Z,15.75
2019-04-07T10:53:22.722Z,16.20
2019-04-07T10:55:45.300Z,17.17
2019-04-07T10:57:52.489Z,17.05
2019-04-07T10:59:59.656Z,17.48
2019-04-07T11:02:23.772Z,16.17
2019-04-07T11:04:47.421Z,16.37
2019-04-07T11:07:04.109Z,17.62
2019-04-07T11:09:28.376Z,16.37
2019-04-07T11:11:49.090Z,17.67
2019-04-07T11:14:09.615Z,18.05
2019-04-07T11:16:35.109Z,17.70
2019-04-07T11:18:58.639Z,19.62
2019-04-07T11:21:05.895Z,19.75
2019-04-07T11:23:13.107Z,25.57
2019-04-07T11:25:20.708Z,22.07
2019-04-07T11:27:33.335Z,19.32
2019-04-07T11:29:43.626Z,21.73
2019-04-07T11:31:54.951Z,19.52
2019-04-07T11:34:02.104Z,19.35
2019-04-07T11:36:09.459Z,19.92
2019-04-07T11:38:25.668Z,19.62
2019-04-07T11:40:45.889Z,18.50
2019-04-07T11:43:02.234Z,19.42
2019-04-07T11:45:13.808Z,18.92
2019-04-07T11:47:33.959Z,19.37
2019-04-07T11:49:57.174Z,19.25
2019-04-07T11:52:10.455Z,20.12
2019-04-07T11:54:20.352Z,20.37
2019-04-07T11:56:40.139Z,20.20
2019-04-07T11:59:03.521Z,19.77
2019-04-07T12:01:22.956Z,19.85
2019-04-07T12:03:39.862Z,19.25
2019-04-07T12:05:48.431Z,20.82
2019-04-07T12:08:12.005Z,20.95
2019-04-07T12:10:19.151Z,19.65
2019-04-07T12:12:38.658Z,20.60
2019-04-07T12:14:57.804Z,20.30
2019-04-07T12:19:40.229Z,19.85
2019-04-07T12:21:48.059Z,20.75
2019-04-07T12:24:13.768Z,24.32
2019-04-07T12:26:20.970Z,20.20
2019-04-07T12:28:28.249Z,19.67
2019-04-07T12:30:35.866Z,21.27
2019-04-07T12:32:49.805Z,22.55
2019-04-07T12:35:17.190Z,21.10
2019-04-07T12:37:39.299Z,19.27
2019-04-07T12:39:51.991Z,19.55
2019-04-07T12:42:16.733Z,20.20
2019-04-07T12:44:39.805Z,20.37
2019-04-07T12:46:50.906Z,19.87
2019-04-07T12:49:06.737Z,21.93
2019-04-07T12:53:33.472Z,20.52
2019-04-07T12:55:46.922Z,19.80
2019-04-07T12:57:52.756Z,19.73
2019-04-07T13:00:09.185Z,19.57
2019-04-07T13:02:28.517Z,20.80
2019-04-07T13:04:50.591Z,20.75
2019-04-07T13:07:03.822Z,20.80
2019-04-07T13:09:31.489Z,21.00
2019-04-07T13:11:55.811Z,20.10
2019-04-07T13:14:06.174Z,21.30
2019-04-07T13:16:28.214Z,22.25
2019-04-07T13:18:52.177Z,22.22
2019-04-07T13:21:03.299Z,23.27
2019-04-07T13:23:13.615Z,22.25
2019-04-07T13:25:29.189Z,23.02
2019-04-07T13:27:38.954Z,25.72
2019-04-07T13:29:54.339Z,27.48
2019-04-07T13:32:01.525Z,27.00
2019-04-07T13:34:24.858Z,26.42
2019-04-07T13:36:40.982Z,28.95
2019-04-07T13:38:54.540Z,28.20
2019-04-07T13:41:04.604Z,25.30
2019-04-07T13:43:31.163Z,26.97
2019-04-07T13:45:55.843Z,26.95
2019-04-07T13:48:06.190Z,26.65
2019-04-07T13:50:16.519Z,27.65
2019-04-07T13:52:23.637Z,28.00
2019-04-07T13:54:37.235Z,27.70
2019-04-07T13:57:00.617Z,27.77
2019-04-07T13:59:24.611Z,30.37
2019-04-07T14:01:44.036Z,28.52
2019-04-07T14:04:02.837Z,35.10
2019-04-07T14:06:14.706Z,28.15
2019-04-07T14:08:33.444Z,28.95
2019-04-07T14:10:59.310Z,30.08
2019-04-07T14:13:12.494Z,30.92
2019-04-07T14:15:35.922Z,29.95
2019-04-07T14:18:00.106Z,30.95
2019-04-07T14:20:11.613Z,30.23
2019-04-07T14:22:34.297Z,36.40
2019-04-07T14:24:44.974Z,30.27
2019-04-07T14:27:07.588Z,29.90
2019-04-07T14:29:17.424Z,28.52
2019-04-07T14:31:28.230Z,30.30
2019-04-07T14:33:50.737Z,32.13
2019-04-07T14:35:58.248Z,31.30
2019-04-07T14:38:05.529Z,32.90
2019-04-07T14:40:12.871Z,30.70
2019-04-07T14:42:20.020Z,28.73
2019-04-07T14:44:36.948Z,30.72
2019-04-07T14:46:47.053Z,31.87
2019-04-07T14:48:56.934Z,32.23
2019-04-07T14:51:07.199Z,31.07
2019-04-07T14:53:30.541Z,31.48
2019-04-07T14:55:43.456Z,32.78
2019-04-07T14:58:02.419Z,32.28
2019-04-07T15:00:26.926Z,36.90
2019-04-07T15:02:32.243Z,35.58
2019-04-07T15:04:54.389Z,33.20
2019-04-07T15:07:06.901Z,40.92
2019-04-07T15:09:13.773Z,34.27
2019-04-07T15:11:23.775Z,37.10
2019-04-07T15:13:29.961Z,35.88
2019-04-07T15:15:35.706Z,36.70
2019-04-07T15:17:41.318Z,36.58
2019-04-07T15:19:47.347Z,43.28
2019-04-07T15:21:54.955Z,46.48
2019-04-07T15:24:04.052Z,38.70
2019-04-07T15:26:07.767Z,37.23
2019-04-07T15:28:14.198Z,38.48
2019-04-07T15:30:20.282Z,47.03
2019-04-07T15:32:28.495Z,46.28
2019-04-07T15:34:33.166Z,39.10
2019-04-07T15:36:38.684Z,40.33
2019-04-07T15:38:44.296Z,61.53
2019-04-07T15:40:50.577Z,51.37
2019-04-07T15:42:56.898Z,57.27
2019-04-07T15:45:02.550Z,35.23
2019-04-07T15:47:09.255Z,51.18
2019-04-07T15:49:14.937Z,42.80
2019-04-07T15:51:20.480Z,53.78
2019-04-07T15:53:26.014Z,49.85
2019-04-07T15:55:46.420Z,44.18
2019-04-07T15:57:38.748Z,37.70
2019-04-07T15:59:44.997Z,85.57
2019-04-07T16:01:50.993Z,52.13
2019-04-07T16:03:57.099Z,47.95
2019-04-07T16:06:03.436Z,58.17
2019-04-07T16:08:11.242Z,43.17
2019-04-07T16:10:18.707Z,54.27
2019-04-07T16:12:24.096Z,41.58
2019-04-07T16:14:29.824Z,44.03
2019-04-07T16:16:36.072Z,35.98
2019-04-07T16:18:43.420Z,34.23
2019-04-07T16:20:49.562Z,32.53
2019-04-07T16:22:55.490Z,29.20
2019-04-07T16:25:01.795Z,35.55
2019-04-07T16:27:08.984Z,32.55
2019-04-07T16:29:17.052Z,28.83
2019-04-07T16:31:24.175Z,29.35
2019-04-07T16:33:32.551Z,28.83
2019-04-07T16:35:36.540Z,28.77
2019-04-07T16:37:42.178Z,29.77
2019-04-07T16:39:47.699Z,29.75
2019-04-07T16:41:53.429Z,37.23
2019-04-07T16:43:58.997Z,36.98
2019-04-07T16:46:05.535Z,40.35
2019-04-07T16:48:12.866Z,34.95
2019-04-07T16:50:20.390Z,34.48
2019-04-07T16:52:28.550Z,34.03
2019-04-07T16:54:34.132Z,41.08
2019-04-07T16:56:40.224Z,49.55
2019-04-07T16:58:46.909Z,61.02
2019-04-07T17:00:52.561Z,54.15
2019-04-07T17:02:58.266Z,94.75
2019-04-07T17:05:05.512Z,63.33
2019-04-07T17:07:15.312Z,59.05
2019-04-07T17:09:22.797Z,57.55
2019-04-07T17:11:26.660Z,51.53
2019-04-07T17:13:38.593Z,50.08
2019-04-07T17:15:40.937Z,48.65
2019-04-07T17:17:51.352Z,47.50
2019-04-07T17:19:57.481Z,45.67
2019-04-07T17:22:01.788Z,45.03
2019-04-07T17:24:07.671Z,43.75
2019-04-07T17:26:13.703Z,43.95
2019-04-07T17:28:19.521Z,44.08
2019-04-07T17:30:26.202Z,44.75
2019-04-07T17:32:35.492Z,42.80
2019-04-07T17:34:41.711Z,41.42
2019-04-07T17:36:50.681Z,42.58
2019-04-07T17:39:05.426Z,44.05
2019-04-07T17:41:14.280Z,43.35
2019-04-07T17:43:27.056Z,43.63
2019-04-07T17:45:30.932Z,45.50
2019-04-07T17:47:52.837Z,47.65
2019-04-07T17:50:12.619Z,46.90
2019-04-07T17:52:20.773Z,46.02
2019-04-07T17:54:44.230Z,45.05
2019-04-07T17:56:53.882Z,45.65
2019-04-07T17:59:13.153Z,48.60
2019-04-07T18:01:35.752Z,54.85
2019-04-07T18:03:47.108Z,62.08
2019-04-07T18:06:11.211Z,64.47
2019-04-07T18:08:18.507Z,71.33
2019-04-07T18:10:41.909Z,68.45
2019-04-07T18:13:01.098Z,69.60
2019-04-07T18:15:10.681Z,70.08
2019-04-07T18:17:33.461Z,68.37
2019-04-07T18:19:43.592Z,62.50
2019-04-07T18:22:03.226Z,63.65
2019-04-07T18:24:22.803Z,64.00
2019-04-07T18:26:38.733Z,61.02
2019-04-07T18:31:11.683Z,55.90
2019-04-07T18:33:20.695Z,54.65
2019-04-07T18:35:43.168Z,53.85
2019-04-07T18:37:56.469Z,54.83
2019-04-07T18:40:19.981Z,56.02
2019-04-07T18:42:33.082Z,52.27
2019-04-07T18:47:23.884Z,54.23
2019-04-07T18:49:33.698Z,49.90
2019-04-07T18:51:47.233Z,49.15
2019-04-07T18:54:10.896Z,48.70
2019-04-07T18:58:31.193Z,48.25
2019-04-07T19:00:39.195Z,48.00
2019-04-07T19:02:52.565Z,46.10
2019-04-07T19:05:05.786Z,45.83
2019-04-07T19:07:30.454Z,43.63
2019-04-07T19:09:41.116Z,42.43
2019-04-07T19:11:48.716Z,42.00
2019-04-07T19:14:26.103Z,42.30
2019-04-07T19:16:19.109Z,42.95
2019-04-07T19:18:32.559Z,42.45
2019-04-07T19:20:56.068Z,41.23
2019-04-07T19:23:04.330Z,39.78
2019-04-07T19:25:17.576Z,39.25
2019-04-07T19:27:41.069Z,37.88
2019-04-07T19:29:51.258Z,37.93
2019-04-07T19:32:07.996Z,38.42
2019-04-07T19:34:30.081Z,37.58
2019-04-07T19:36:48.250Z,36.42
2019-04-07T19:38:59.115Z,35.40
2019-04-07T19:41:24.426Z,35.03
2019-04-07T19:43:37.564Z,33.38
2019-04-07T19:45:54.882Z,32.28
2019-04-07T19:48:04.039Z,34.60
2019-04-07T19:50:27.138Z,30.92
2019-04-07T19:52:37.178Z,32.05
2019-04-07T19:57:13.349Z,30.40
2019-04-07T20:04:12.936Z,32.73
2019-04-07T20:06:24.800Z,35.58
2019-04-07T20:08:37.657Z,36.73
2019-04-07T20:11:03.122Z,38.98
2019-04-07T20:13:26.744Z,48.02
2019-04-07T20:15:46.087Z,54.03
2019-04-07T20:17:58.998Z,55.23
2019-04-07T20:20:13.992Z,53.02
2019-04-07T20:22:39.463Z,55.43
2019-04-07T20:25:03.126Z,82.20
2019-04-07T20:27:22.711Z,78.83
2019-04-07T20:29:33.841Z,76.82
2019-04-07T20:31:53.492Z,85.05
2019-04-07T20:34:03.936Z,86.47
2019-04-07T20:36:15.020Z,122.15
2019-04-07T20:38:19.704Z,63.92
2019-04-07T20:40:45.460Z,65.28
2019-04-07T20:42:53.167Z,51.25
2019-04-07T20:45:06.601Z,44.85
2019-04-07T20:47:26.678Z,45.25
2019-04-07T20:49:51.642Z,40.35
2019-04-07T20:51:59.031Z,41.08
2019-04-07T20:54:21.606Z,43.45
2019-04-07T20:59:04.641Z,45.73
2019-04-07T21:01:12.969Z,47.62
2019-04-07T21:03:33.979Z,50.60
2019-04-07T21:05:42.043Z,49.13
2019-04-07T21:07:49.299Z,47.88
2019-04-07T21:10:12.570Z,49.03
2019-04-07T21:12:19.740Z,98.67
2019-04-07T21:14:43.186Z,51.95
2019-04-07T21:16:50.969Z,66.55
2019-04-07T21:19:13.375Z,78.90
2019-04-07T21:21:26.745Z,57.80
2019-04-07T21:23:50.876Z,54.70
2019-04-07T21:26:07.885Z,58.08
2019-04-07T21:28:16.034Z,62.88
2019-04-07T21:30:23.227Z,103.78
2019-04-07T21:32:31.245Z,73.80
2019-04-07T21:34:51.531Z,69.20
2019-04-07T21:37:04.782Z,63.15
2019-04-07T21:39:12.074Z,61.45
2019-04-07T21:41:22.612Z,61.68
2019-04-07T21:43:32.875Z,60.98
2019-04-07T21:45:45.843Z,62.17
2019-04-07T21:47:53.072Z,63.17
2019-04-07T21:50:07.477Z,68.22
2019-04-07T21:52:24.574Z,68.92
2019-04-07T21:54:44.062Z,64.12
2019-04-07T21:56:54.385Z,84.40
2019-04-07T21:59:10.793Z,67.82
2019-04-07T22:01:18.684Z,59.58
2019-04-07T22:03:35.260Z,56.10
2019-04-07T22:05:56.389Z,54.98
2019-04-07T22:08:13.091Z,55.80
2019-04-07T22:12:19.497Z,52.27
2019-04-07T22:14:26.427Z,52.83
2019-04-07T22:16:33.104Z,54.23
2019-04-07T22:18:39.468Z,53.87
2019-04-07T22:20:45.367Z,59.75
2019-04-07T22:22:51.315Z,61.00
2019-04-07T22:24:56.935Z,62.62
2019-04-07T22:27:04.587Z,55.95
2019-04-07T22:29:09.806Z,59.25
2019-04-07T22:31:16.977Z,76.22
2019-04-07T22:33:25.605Z,71.10
2019-04-07T22:35:30.351Z,61.37
2019-04-07T22:37:36.029Z,57.93
2019-04-07T22:39:41.798Z,58.28
2019-04-07T22:41:48.297Z,73.15
2019-04-07T22:43:54.042Z,84.77
2019-04-07T22:46:08.712Z,102.40
2019-04-07T22:48:14.181Z,84.97
2019-04-07T22:50:21.270Z,73.55
2019-04-07T22:52:27.819Z,71.60
2019-04-07T22:54:33.543Z,67.00
2019-04-07T22:56:39.893Z,68.20
2019-04-07T22:58:46.531Z,61.33
2019-04-07T23:00:52.244Z,60.08
2019-04-07T23:02:57.932Z,60.35
2019-04-07T23:05:03.453Z,61.68
2019-04-07T23:07:09.005Z,59.03
2019-04-07T23:09:15.484Z,60.28
2019-04-07T23:11:21.150Z,59.00
2019-04-07T23:13:26.721Z,61.90
2019-04-07T23:15:40.141Z,65.15
2019-04-07T23:17:39.813Z,64.62
2019-04-07T23:19:46.253Z,63.28
2019-04-07T23:21:51.864Z,63.75
2019-04-07T23:23:57.718Z,59.10
2019-04-07T23:26:03.356Z,56.63
2019-04-07T23:28:08.886Z,73.22
2019-04-07T23:30:17.285Z,59.48
2019-04-07T23:32:23.986Z,56.98
2019-04-07T23:34:29.706Z,55.65
2019-04-07T23:36:36.121Z,56.28
2019-04-07T23:38:41.700Z,57.40
2019-04-07T23:40:48.176Z,62.23
2019-04-07T23:42:53.763Z,64.12
2019-04-07T23:44:59.309Z,65.00
2019-04-07T23:47:06.852Z,65.35
2019-04-07T23:49:13.123Z,72.80
2019-04-07T23:51:18.797Z,76.65
2019-04-07T23:56:18.335Z,80.25
2019-04-07T23:58:23.847Z,83.67
